sensor_id;sensor_type;location;lat;lon;timestamp;pressure;altitude;pressure_sealevel;temperature;humidity
74163;BME280;62515;52.758;5.076;2023-05-09T00:02:09;101853.03;;;12.42;100.00
74163;BME280;62515;52.758;5.076;2023-05-09T00:04:36;101842.06;;;12.47;100.00
74163;BME280;62515;52.758;5.076;2023-05-09T00:07:03;101843.78;;;12.48;100.00
74163;BME280;62515;52.758;5.076;2023-05-09T00:09:30;101842.75;;;12.50;100.00
74163;BME280;62515;52.758;5.076;2023-05-09T00:11:58;101844.34;;;12.53;100.00
74163;BME280;62515;52.758;5.076;2023-05-09T00:14:25;101835.00;;;12.46;100.00
74163;BME280;62515;52.758;5.076;2023-05-09T00:16:52;101832.66;;;12.41;100.00
74163;BME280;62515;52.758;5.076;2023-05-09T00:19:18;101831.19;;;12.36;100.00
74163;BME280;62515;52.758;5.076;2023-05-09T00:21:45;101839.47;;;12.45;100.00
74163;BME280;62515;52.758;5.076;2023-05-09T00:24:12;101826.81;;;12.49;100.00
74163;BME280;62515;52.758;5.076;2023-05-09T00:26:39;101825.66;;;12.53;100.00
74163;BME280;62515;52.758;5.076;2023-05-09T00:29:07;101817.66;;;12.53;100.00
74163;BME280;62515;52.758;5.076;2023-05-09T00:31:33;101824.06;;;12.50;100.00
74163;BME280;62515;52.758;5.076;2023-05-09T00:34:00;101815.84;;;12.53;100.00
74163;BME280;62515;52.758;5.076;2023-05-09T00:36:27;101813.25;;;12.52;100.00
74163;BME280;62515;52.758;5.076;2023-05-09T00:38:54;101814.22;;;12.51;100.00
74163;BME280;62515;52.758;5.076;2023-05-09T00:41:21;101808.03;;;12.50;100.00
74163;BME280;62515;52.758;5.076;2023-05-09T00:43:47;101806.97;;;12.53;100.00
74163;BME280;62515;52.758;5.076;2023-05-09T00:46:16;101801.06;;;12.48;100.00
74163;BME280;62515;52.758;5.076;2023-05-09T00:48:42;101804.78;;;12.45;100.00
74163;BME280;62515;52.758;5.076;2023-05-09T00:51:09;101810.91;;;12.47;100.00
74163;BME280;62515;52.758;5.076;2023-05-09T00:53:36;101806.97;;;12.53;100.00
74163;BME280;62515;52.758;5.076;2023-05-09T00:56:04;101802.78;;;12.49;100.00
74163;BME280;62515;52.758;5.076;2023-05-09T00:58:31;101809.56;;;12.54;100.00
74163;BME280;62515;52.758;5.076;2023-05-09T01:00:57;101787.53;;;12.51;100.00
74163;BME280;62515;52.758;5.076;2023-05-09T01:03:26;101798.56;;;12.59;100.00
74163;BME280;62515;52.758;5.076;2023-05-09T01:05:56;101798.66;;;12.57;100.00
74163;BME280;62515;52.758;5.076;2023-05-09T01:08:36;101793.22;;;12.59;100.00
74163;BME280;62515;52.758;5.076;2023-05-09T01:11:10;101795.81;;;12.61;100.00
74163;BME280;62515;52.758;5.076;2023-05-09T01:13:45;101778.91;;;12.60;100.00
74163;BME280;62515;52.758;5.076;2023-05-09T01:16:20;101786.34;;;12.55;100.00
74163;BME280;62515;52.758;5.076;2023-05-09T01:18:55;101775.88;;;12.52;100.00
74163;BME280;62515;52.758;5.076;2023-05-09T01:21:28;101780.47;;;12.50;100.00
74163;BME280;62515;52.758;5.076;2023-05-09T01:24:02;101780.38;;;12.51;100.00
74163;BME280;62515;52.758;5.076;2023-05-09T01:26:43;101775.78;;;12.53;100.00
74163;BME280;62515;52.758;5.076;2023-05-09T01:29:29;101772.50;;;12.63;100.00
74163;BME280;62515;52.758;5.076;2023-05-09T01:31:57;101776.59;;;12.68;100.00
74163;BME280;62515;52.758;5.076;2023-05-09T01:34:25;101768.56;;;12.68;100.00
74163;BME280;62515;52.758;5.076;2023-05-09T01:36:55;101765.91;;;12.68;100.00
74163;BME280;62515;52.758;5.076;2023-05-09T01:39:25;101763.16;;;12.70;100.00
74163;BME280;62515;52.758;5.076;2023-05-09T01:41:54;101759.53;;;12.71;100.00
74163;BME280;62515;52.758;5.076;2023-05-09T01:44:24;101756.00;;;12.70;100.00
74163;BME280;62515;52.758;5.076;2023-05-09T01:46:52;101752.25;;;12.73;100.00
74163;BME280;62515;52.758;5.076;2023-05-09T01:49:21;101755.69;;;12.75;100.00
74163;BME280;62515;52.758;5.076;2023-05-09T01:51:49;101749.59;;;12.73;100.00
74163;BME280;62515;52.758;5.076;2023-05-09T01:54:16;101748.53;;;12.75;100.00
74163;BME280;62515;52.758;5.076;2023-05-09T01:56:45;101738.81;;;12.74;100.00
74163;BME280;62515;52.758;5.076;2023-05-09T01:59:13;101741.94;;;12.81;100.00
74163;BME280;62515;52.758;5.076;2023-05-09T02:01:43;101738.72;;;12.88;100.00
74163;BME280;62515;52.758;5.076;2023-05-09T02:04:11;101728.81;;;12.90;100.00
74163;BME280;62515;52.758;5.076;2023-05-09T02:06:39;101731.28;;;12.93;100.00
74163;BME280;62515;52.758;5.076;2023-05-09T02:09:07;101733.41;;;13.01;100.00
74163;BME280;62515;52.758;5.076;2023-05-09T02:11:34;101727.59;;;13.08;100.00
74163;BME280;62515;52.758;5.076;2023-05-09T02:14:01;101722.47;;;13.18;100.00
74163;BME280;62515;52.758;5.076;2023-05-09T02:16:28;101730.94;;;13.25;100.00
74163;BME280;62515;52.758;5.076;2023-05-09T02:18:56;101727.63;;;13.34;100.00
74163;BME280;62515;52.758;5.076;2023-05-09T02:21:23;101724.00;;;13.35;100.00
74163;BME280;62515;52.758;5.076;2023-05-09T02:23:50;101727.41;;;13.37;100.00
74163;BME280;62515;52.758;5.076;2023-05-09T02:26:17;101721.84;;;13.40;100.00
74163;BME280;62515;52.758;5.076;2023-05-09T02:28:45;101716.50;;;13.40;100.00
74163;BME280;62515;52.758;5.076;2023-05-09T02:31:13;101719.31;;;13.38;100.00
74163;BME280;62515;52.758;5.076;2023-05-09T02:33:43;101713.94;;;13.38;100.00
74163;BME280;62515;52.758;5.076;2023-05-09T02:36:13;101705.16;;;13.36;100.00
74163;BME280;62515;52.758;5.076;2023-05-09T02:38:40;101699.81;;;13.36;100.00
74163;BME280;62515;52.758;5.076;2023-05-09T02:41:11;101700.81;;;13.35;100.00
74163;BME280;62515;52.758;5.076;2023-05-09T02:43:38;101701.66;;;13.36;100.00
74163;BME280;62515;52.758;5.076;2023-05-09T02:46:05;101696.31;;;13.36;100.00
74163;BME280;62515;52.758;5.076;2023-05-09T02:48:33;101703.25;;;13.38;100.00
74163;BME280;62515;52.758;5.076;2023-05-09T02:50:59;101698.78;;;13.39;100.00
74163;BME280;62515;52.758;5.076;2023-05-09T02:53:28;101691.50;;;13.41;100.00
74163;BME280;62515;52.758;5.076;2023-05-09T02:55:54;101692.34;;;13.41;100.00
74163;BME280;62515;52.758;5.076;2023-05-09T02:58:21;101684.97;;;13.45;100.00
74163;BME280;62515;52.758;5.076;2023-05-09T03:00:48;101688.94;;;13.52;100.00
74163;BME280;62515;52.758;5.076;2023-05-09T03:03:15;101687.00;;;13.54;100.00
74163;BME280;62515;52.758;5.076;2023-05-09T03:05:42;101684.22;;;13.55;100.00
74163;BME280;62515;52.758;5.076;2023-05-09T03:08:09;101678.75;;;13.57;100.00
74163;BME280;62515;52.758;5.076;2023-05-09T03:10:37;101672.66;;;13.55;100.00
74163;BME280;62515;52.758;5.076;2023-05-09T03:13:04;101667.41;;;13.53;100.00
74163;BME280;62515;52.758;5.076;2023-05-09T03:15:31;101660.25;;;13.54;100.00
74163;BME280;62515;52.758;5.076;2023-05-09T03:17:58;101660.16;;;13.55;100.00
74163;BME280;62515;52.758;5.076;2023-05-09T03:20:25;101661.19;;;13.53;100.00
74163;BME280;62515;52.758;5.076;2023-05-09T03:22:52;101657.88;;;13.49;100.00
74163;BME280;62515;52.758;5.076;2023-05-09T03:25:19;101658.75;;;13.50;100.00
74163;BME280;62515;52.758;5.076;2023-05-09T03:27:48;101654.25;;;13.50;100.00
74163;BME280;62515;52.758;5.076;2023-05-09T03:30:15;101658.53;;;13.53;100.00
74163;BME280;62515;52.758;5.076;2023-05-09T03:32:44;101649.56;;;13.54;100.00
74163;BME280;62515;52.758;5.076;2023-05-09T03:35:11;101646.13;;;13.52;100.00
74163;BME280;62515;52.758;5.076;2023-05-09T03:37:38;101639.28;;;13.48;100.00
74163;BME280;62515;52.758;5.076;2023-05-09T03:40:07;101642.91;;;13.47;100.00
74163;BME280;62515;52.758;5.076;2023-05-09T03:42:40;101631.38;;;13.46;100.00
74163;BME280;62515;52.758;5.076;2023-05-09T03:45:09;101634.81;;;13.48;100.00
74163;BME280;62515;52.758;5.076;2023-05-09T03:47:36;101633.72;;;13.51;100.00
74163;BME280;62515;52.758;5.076;2023-05-09T03:50:05;101627.75;;;13.47;100.00
74163;BME280;62515;52.758;5.076;2023-05-09T03:52:33;101623.13;;;13.49;100.00
74163;BME280;62515;52.758;5.076;2023-05-09T03:55:00;101615.31;;;13.46;100.00
74163;BME280;62515;52.758;5.076;2023-05-09T03:57:31;101611.81;;;13.46;100.00
74163;BME280;62515;52.758;5.076;2023-05-09T03:59:59;101608.94;;;13.49;100.00
74163;BME280;62515;52.758;5.076;2023-05-09T04:02:27;101612.56;;;13.48;100.00
74163;BME280;62515;52.758;5.076;2023-05-09T04:04:54;101609.75;;;13.49;100.00
74163;BME280;62515;52.758;5.076;2023-05-09T04:07:21;101614.28;;;13.49;100.00
74163;BME280;62515;52.758;5.076;2023-05-09T04:09:48;101603.44;;;13.50;100.00
74163;BME280;62515;52.758;5.076;2023-05-09T04:12:15;101601.84;;;13.48;100.00
74163;BME280;62515;52.758;5.076;2023-05-09T04:14:42;101601.63;;;13.51;100.00
74163;BME280;62515;52.758;5.076;2023-05-09T04:17:11;101592.66;;;13.52;100.00
74163;BME280;62515;52.758;5.076;2023-05-09T04:19:40;101595.34;;;13.52;100.00
74163;BME280;62515;52.758;5.076;2023-05-09T04:22:06;101591.81;;;13.51;100.00
74163;BME280;62515;52.758;5.076;2023-05-09T04:24:33;101585.59;;;13.51;100.00
74163;BME280;62515;52.758;5.076;2023-05-09T04:27:00;101588.50;;;13.48;100.00
74163;BME280;62515;52.758;5.076;2023-05-09T04:29:27;101585.69;;;13.49;100.00
74163;BME280;62515;52.758;5.076;2023-05-09T04:31:55;101589.44;;;13.47;100.00
74163;BME280;62515;52.758;5.076;2023-05-09T04:34:24;101581.19;;;13.50;100.00
74163;BME280;62515;52.758;5.076;2023-05-09T04:36:53;101583.44;;;13.56;100.00
74163;BME280;62515;52.758;5.076;2023-05-09T04:39:20;101577.34;;;13.54;100.00
74163;BME280;62515;52.758;5.076;2023-05-09T04:41:59;101585.16;;;13.57;100.00
74163;BME280;62515;52.758;5.076;2023-05-09T04:44:26;101584.19;;;13.58;100.00
74163;BME280;62515;52.758;5.076;2023-05-09T04:46:53;101576.25;;;13.56;100.00
74163;BME280;62515;52.758;5.076;2023-05-09T04:49:20;101570.06;;;13.56;100.00
74163;BME280;62515;52.758;5.076;2023-05-09T04:51:47;101569.88;;;13.59;100.00
74163;BME280;62515;52.758;5.076;2023-05-09T04:54:15;101565.25;;;13.61;100.00
74163;BME280;62515;52.758;5.076;2023-05-09T04:56:43;101558.09;;;13.61;100.00
74163;BME280;62515;52.758;5.076;2023-05-09T04:59:10;101563.19;;;13.65;100.00
74163;BME280;62515;52.758;5.076;2023-05-09T05:01:37;101551.31;;;13.69;100.00
74163;BME280;62515;52.758;5.076;2023-05-09T05:04:04;101550.22;;;13.71;100.00
74163;BME280;62515;52.758;5.076;2023-05-09T05:06:32;101551.72;;;13.75;100.00
74163;BME280;62515;52.758;5.076;2023-05-09T05:08:59;101552.56;;;13.76;100.00
74163;BME280;62515;52.758;5.076;2023-05-09T05:11:28;101547.97;;;13.78;100.00
74163;BME280;62515;52.758;5.076;2023-05-09T05:13:54;101544.19;;;13.80;100.00
74163;BME280;62515;52.758;5.076;2023-05-09T05:16:22;101538.63;;;13.83;100.00
74163;BME280;62515;52.758;5.076;2023-05-09T05:18:49;101535.84;;;13.85;100.00
74163;BME280;62515;52.758;5.076;2023-05-09T05:21:17;101531.00;;;13.90;100.00
74163;BME280;62515;52.758;5.076;2023-05-09T05:23:44;101530.44;;;13.97;100.00
74163;BME280;62515;52.758;5.076;2023-05-09T05:26:12;101520.13;;;14.04;100.00
74163;BME280;62515;52.758;5.076;2023-05-09T05:28:40;101521.25;;;14.12;100.00
74163;BME280;62515;52.758;5.076;2023-05-09T05:31:07;101514.69;;;14.17;100.00
74163;BME280;62515;52.758;5.076;2023-05-09T05:33:34;101519.28;;;14.14;100.00
74163;BME280;62515;52.758;5.076;2023-05-09T05:36:02;101519.28;;;14.14;100.00
74163;BME280;62515;52.758;5.076;2023-05-09T05:38:29;101521.88;;;14.16;100.00
74163;BME280;62515;52.758;5.076;2023-05-09T05:40:57;101510.53;;;14.12;100.00
74163;BME280;62515;52.758;5.076;2023-05-09T05:43:26;101509.91;;;14.09;100.00
74163;BME280;62515;52.758;5.076;2023-05-09T05:45:54;101512.47;;;14.10;100.00
74163;BME280;62515;52.758;5.076;2023-05-09T05:48:23;101514.06;;;14.13;100.00
74163;BME280;62515;52.758;5.076;2023-05-09T05:50:52;101510.03;;;14.07;100.00
74163;BME280;62515;52.758;5.076;2023-05-09T05:53:22;101508.31;;;14.06;100.00
74163;BME280;62515;52.758;5.076;2023-05-09T05:55:50;101510.28;;;14.04;100.00
74163;BME280;62515;52.758;5.076;2023-05-09T05:58:17;101500.63;;;14.02;100.00
74163;BME280;62515;52.758;5.076;2023-05-09T06:00:43;101506.13;;;14.00;100.00
74163;BME280;62515;52.758;5.076;2023-05-09T06:03:11;101497.94;;;14.02;100.00
74163;BME280;62515;52.758;5.076;2023-05-09T06:06:04;101504.06;;;14.04;100.00
74163;BME280;62515;52.758;5.076;2023-05-09T06:08:31;101499.44;;;14.06;100.00
74163;BME280;62515;52.758;5.076;2023-05-09T06:10:59;101497.84;;;14.03;100.00
74163;BME280;62515;52.758;5.076;2023-05-09T06:13:26;101495.03;;;14.05;100.00
74163;BME280;62515;52.758;5.076;2023-05-09T06:16:01;101483.84;;;14.00;100.00
74163;BME280;62515;52.758;5.076;2023-05-09T06:18:45;101487.16;;;14.03;100.00
74163;BME280;62515;52.758;5.076;2023-05-09T06:21:12;101491.63;;;14.03;100.00
74163;BME280;62515;52.758;5.076;2023-05-09T06:23:39;101487.16;;;14.03;100.00
74163;BME280;62515;52.758;5.076;2023-05-09T06:26:16;101483.31;;;13.95;100.00
74163;BME280;62515;52.758;5.076;2023-05-09T06:28:43;101480.88;;;13.92;100.00
74163;BME280;62515;52.758;5.076;2023-05-09T06:31:09;101483.31;;;13.95;100.00
74163;BME280;62515;52.758;5.076;2023-05-09T06:33:36;101473.25;;;13.98;100.00
74163;BME280;62515;52.758;5.076;2023-05-09T06:36:05;101476.06;;;13.97;100.00
74163;BME280;62515;52.758;5.076;2023-05-09T06:38:32;101461.09;;;13.94;100.00
74163;BME280;62515;52.758;5.076;2023-05-09T06:40:59;101469.75;;;13.98;100.00
74163;BME280;62515;52.758;5.076;2023-05-09T06:43:26;101454.13;;;13.92;100.00
74163;BME280;62515;52.758;5.076;2023-05-09T06:45:53;101459.47;;;13.92;100.00
74163;BME280;62515;52.758;5.076;2023-05-09T06:48:20;101457.16;;;13.87;100.00
74163;BME280;62515;52.758;5.076;2023-05-09T06:50:47;101451.91;;;13.86;100.00
74163;BME280;62515;52.758;5.076;2023-05-09T06:53:15;101444.03;;;13.84;100.00
74163;BME280;62515;52.758;5.076;2023-05-09T06:55:42;101445.94;;;13.82;100.00
74163;BME280;62515;52.758;5.076;2023-05-09T06:58:09;101440.72;;;13.81;100.00
74163;BME280;62515;52.758;5.076;2023-05-09T07:00:36;101437.09;;;13.82;100.00
74163;BME280;62515;52.758;5.076;2023-05-09T07:03:03;101430.13;;;13.79;100.00
74163;BME280;62515;52.758;5.076;2023-05-09T07:05:30;101438.91;;;13.81;100.00
74163;BME280;62515;52.758;5.076;2023-05-09T07:07:57;101427.34;;;13.81;100.00
74163;BME280;62515;52.758;5.076;2023-05-09T07:10:25;101427.34;;;13.81;100.00
74163;BME280;62515;52.758;5.076;2023-05-09T07:12:52;101420.50;;;13.77;100.00
74163;BME280;62515;52.758;5.076;2023-05-09T07:15:19;101425.63;;;13.80;100.00
74163;BME280;62515;52.758;5.076;2023-05-09T07:18:05;101418.47;;;13.80;100.00
74163;BME280;62515;52.758;5.076;2023-05-09T07:20:32;101414.69;;;13.72;100.00
74163;BME280;62515;52.758;5.076;2023-05-09T07:22:59;101403.59;;;13.65;100.00
74163;BME280;62515;52.758;5.076;2023-05-09T07:25:27;101412.22;;;13.69;100.00
74163;BME280;62515;52.758;5.076;2023-05-09T07:27:54;101408.19;;;13.63;100.00
74163;BME280;62515;52.758;5.076;2023-05-09T07:30:21;101407.44;;;13.61;100.00
74163;BME280;62515;52.758;5.076;2023-05-09T07:32:48;101412.44;;;13.66;100.00
74163;BME280;62515;52.758;5.076;2023-05-09T07:35:15;101418.41;;;13.69;100.00
74163;BME280;62515;52.758;5.076;2023-05-09T07:37:42;101410.28;;;13.71;100.00
74163;BME280;62515;52.758;5.076;2023-05-09T07:40:09;101413.06;;;13.69;100.00
74163;BME280;62515;52.758;5.076;2023-05-09T07:42:37;101403.44;;;13.67;100.00
74163;BME280;62515;52.758;5.076;2023-05-09T07:45:05;101411.25;;;13.70;100.00
74163;BME280;62515;52.758;5.076;2023-05-09T07:47:32;101404.31;;;13.67;100.00
74163;BME280;62515;52.758;5.076;2023-05-09T07:49:59;101405.63;;;13.61;100.00
74163;BME280;62515;52.758;5.076;2023-05-09T07:52:26;101397.47;;;13.63;100.00
74163;BME280;62515;52.758;5.076;2023-05-09T07:54:52;101382.13;;;13.54;100.00
74163;BME280;62515;52.758;5.076;2023-05-09T07:57:19;101390.69;;;13.59;100.00
74163;BME280;62515;52.758;5.076;2023-05-09T07:59:47;101386.16;;;13.59;100.00
74163;BME280;62515;52.758;5.076;2023-05-09T08:02:14;101372.91;;;13.58;100.00
74163;BME280;62515;52.758;5.076;2023-05-09T08:04:41;101379.97;;;13.59;100.00
74163;BME280;62515;52.758;5.076;2023-05-09T08:07:08;101379.00;;;13.60;100.00
74163;BME280;62515;52.758;5.076;2023-05-09T08:09:34;101371.59;;;13.63;100.00
74163;BME280;62515;52.758;5.076;2023-05-09T08:12:01;101362.84;;;13.61;100.00
74163;BME280;62515;52.758;5.076;2023-05-09T08:14:28;101360.56;;;13.68;100.00
74163;BME280;62515;52.758;5.076;2023-05-09T08:16:56;101362.47;;;13.66;100.00
74163;BME280;62515;52.758;5.076;2023-05-09T08:19:23;101361.41;;;13.69;100.00
74163;BME280;62515;52.758;5.076;2023-05-09T08:21:50;101361.28;;;13.70;100.00
74163;BME280;62515;52.758;5.076;2023-05-09T08:24:16;101352.28;;;13.71;100.00
74163;BME280;62515;52.758;5.076;2023-05-09T08:26:43;101355.22;;;13.79;100.00
74163;BME280;62515;52.758;5.076;2023-05-09T08:29:10;101355.50;;;13.87;100.00
74163;BME280;62515;52.758;5.076;2023-05-09T08:31:37;101338.34;;;13.90;100.00
74163;BME280;62515;52.758;5.076;2023-05-09T08:34:05;101333.47;;;13.95;100.00
74163;BME280;62515;52.758;5.076;2023-05-09T08:36:32;101334.34;;;13.95;100.00
74163;BME280;62515;52.758;5.076;2023-05-09T08:38:59;101338.44;;;13.88;100.00
74163;BME280;62515;52.758;5.076;2023-05-09T08:41:26;101331.19;;;13.90;100.00
74163;BME280;62515;52.758;5.076;2023-05-09T08:43:55;101324.34;;;13.86;100.00
74163;BME280;62515;52.758;5.076;2023-05-09T08:46:25;101322.41;;;13.88;100.00
74163;BME280;62515;52.758;5.076;2023-05-09T08:48:53;101310.97;;;13.86;100.00
74163;BME280;62515;52.758;5.076;2023-05-09T08:51:22;101330.94;;;13.93;100.00
74163;BME280;62515;52.758;5.076;2023-05-09T08:53:49;101326.09;;;14.09;100.00
74163;BME280;62515;52.758;5.076;2023-05-09T08:56:16;101319.25;;;14.05;100.00
74163;BME280;62515;52.758;5.076;2023-05-09T08:58:44;101317.19;;;14.09;100.00
74163;BME280;62515;52.758;5.076;2023-05-09T09:01:11;101322.94;;;14.15;100.00
74163;BME280;62515;52.758;5.076;2023-05-09T09:03:39;101312.09;;;14.28;100.00
74163;BME280;62515;52.758;5.076;2023-05-09T09:06:08;101305.28;;;14.13;100.00
74163;BME280;62515;52.758;5.076;2023-05-09T09:08:36;101310.41;;;14.16;100.00
74163;BME280;62515;52.758;5.076;2023-05-09T09:11:03;101299.19;;;14.00;100.00
74163;BME280;62515;52.758;5.076;2023-05-09T09:13:30;101301.63;;;14.03;100.00
74163;BME280;62515;52.758;5.076;2023-05-09T09:16:00;101300.44;;;14.07;100.00
74163;BME280;62515;52.758;5.076;2023-05-09T09:18:28;101297.38;;;14.00;100.00
74163;BME280;62515;52.758;5.076;2023-05-09T09:20:58;101299.81;;;14.03;100.00
74163;BME280;62515;52.758;5.076;2023-05-09T09:23:27;101295.69;;;14.10;100.00
74163;BME280;62515;52.758;5.076;2023-05-09T09:25:57;101295.69;;;14.10;100.00
74163;BME280;62515;52.758;5.076;2023-05-09T09:28:25;101291.19;;;14.11;100.00
74163;BME280;62515;52.758;5.076;2023-05-09T09:30:52;101295.56;;;14.01;100.00
74163;BME280;62515;52.758;5.076;2023-05-09T09:33:19;101287.63;;;13.99;100.00
74163;BME280;62515;52.758;5.076;2023-05-09T09:35:47;101284.25;;;13.97;100.00
74163;BME280;62515;52.758;5.076;2023-05-09T09:38:15;101285.44;;;13.93;100.00
74163;BME280;62515;52.758;5.076;2023-05-09T09:40:47;101282.50;;;13.85;100.00
74163;BME280;62515;52.758;5.076;2023-05-09T09:43:16;101274.47;;;13.85;100.00
74163;BME280;62515;52.758;5.076;2023-05-09T09:45:42;101281.44;;;13.88;100.00
74163;BME280;62515;52.758;5.076;2023-05-09T09:48:09;101281.53;;;13.86;100.00
74163;BME280;62515;52.758;5.076;2023-05-09T09:50:36;101280.44;;;13.89;100.00
74163;BME280;62515;52.758;5.076;2023-05-09T09:53:03;101269.16;;;13.96;100.00
74163;BME280;62515;52.758;5.076;2023-05-09T09:55:30;101271.72;;;13.98;100.00
74163;BME280;62515;52.758;5.076;2023-05-09T09:57:57;101273.28;;;14.00;100.00
74163;BME280;62515;52.758;5.076;2023-05-09T10:00:26;101270.00;;;14.08;100.00
74163;BME280;62515;52.758;5.076;2023-05-09T10:02:54;101257.84;;;14.04;100.00
74163;BME280;62515;52.758;5.076;2023-05-09T10:05:23;101258.31;;;14.09;100.00
74163;BME280;62515;52.758;5.076;2023-05-09T10:07:52;101259.06;;;14.11;100.00
74163;BME280;62515;52.758;5.076;2023-05-09T10:10:20;101256.59;;;14.08;100.00
74163;BME280;62515;52.758;5.076;2023-05-09T10:12:47;101259.91;;;14.00;100.00
74163;BME280;62515;52.758;5.076;2023-05-09T10:15:16;101262.94;;;13.96;100.00
74163;BME280;62515;52.758;5.076;2023-05-09T10:17:44;101264.03;;;13.93;100.00
74163;BME280;62515;52.758;5.076;2023-05-09T10:20:12;101257.47;;;13.97;100.00
74163;BME280;62515;52.758;5.076;2023-05-09T10:22:39;101253.81;;;13.98;100.00
74163;BME280;62515;52.758;5.076;2023-05-09T10:25:12;101261.38;;;14.04;100.00
74163;BME280;62515;52.758;5.076;2023-05-09T10:27:44;101256.03;;;14.04;100.00
74163;BME280;62515;52.758;5.076;2023-05-09T10:30:15;101250.78;;;14.03;100.00
74163;BME280;62515;52.758;5.076;2023-05-09T10:32:52;101247.13;;;13.93;100.00
74163;BME280;62515;52.758;5.076;2023-05-09T10:35:25;101249.34;;;13.88;100.00
74163;BME280;62515;52.758;5.076;2023-05-09T10:37:54;101253.94;;;13.86;100.00
74163;BME280;62515;52.758;5.076;2023-05-09T10:40:21;101239.34;;;13.90;100.00
74163;BME280;62515;52.758;5.076;2023-05-09T10:42:49;101228.91;;;13.87;100.00
74163;BME280;62515;52.758;5.076;2023-05-09T10:45:16;101236.31;;;14.05;100.00
74163;BME280;62515;52.758;5.076;2023-05-09T10:47:44;101221.00;;;14.07;100.00
74163;BME280;62515;52.758;5.076;2023-05-09T10:50:14;101226.97;;;14.11;100.00
74163;BME280;62515;52.758;5.076;2023-05-09T10:53:14;101226.81;;;14.12;100.00
74163;BME280;62515;52.758;5.076;2023-05-09T10:55:49;101218.31;;;14.07;100.00
74163;BME280;62515;52.758;5.076;2023-05-09T10:58:26;101222.53;;;14.21;100.00
74163;BME280;62515;52.758;5.076;2023-05-09T11:00:54;101211.47;;;14.14;100.00
74163;BME280;62515;52.758;5.076;2023-05-09T11:03:24;101225.09;;;14.23;100.00
74163;BME280;62515;52.758;5.076;2023-05-09T11:05:54;101213.03;;;14.28;100.00
74163;BME280;62515;52.758;5.076;2023-05-09T11:08:23;101202.22;;;14.30;100.00
74163;BME280;62515;52.758;5.076;2023-05-09T11:10:51;101199.44;;;14.20;100.00
74163;BME280;62515;52.758;5.076;2023-05-09T11:13:19;101198.84;;;14.17;100.00
74163;BME280;62515;52.758;5.076;2023-05-09T11:15:57;101192.63;;;14.16;100.00
74163;BME280;62515;52.758;5.076;2023-05-09T11:18:29;101200.50;;;14.18;100.00
74163;BME280;62515;52.758;5.076;2023-05-09T11:20:58;101191.78;;;14.15;100.00
74163;BME280;62515;52.758;5.076;2023-05-09T11:23:26;101184.34;;;14.08;100.00
74163;BME280;62515;52.758;5.076;2023-05-09T11:26:03;101190.19;;;14.13;100.00
74163;BME280;62515;52.758;5.076;2023-05-09T11:28:34;101187.88;;;14.08;100.00
74163;BME280;62515;52.758;5.076;2023-05-09T11:31:11;101175.00;;;14.13;100.00
74163;BME280;62515;52.758;5.076;2023-05-09T11:33:39;101187.88;;;14.20;100.00
74163;BME280;62515;52.758;5.076;2023-05-09T11:36:18;101192.00;;;14.24;100.00
74163;BME280;62515;52.758;5.076;2023-05-09T11:38:46;101180.06;;;14.28;100.00
74163;BME280;62515;52.758;5.076;2023-05-09T11:41:13;101171.41;;;14.24;100.00
74163;BME280;62515;52.758;5.076;2023-05-09T11:43:41;101180.81;;;14.19;100.00
74163;BME280;62515;52.758;5.076;2023-05-09T11:46:08;101171.56;;;14.23;100.00
74163;BME280;62515;52.758;5.076;2023-05-09T11:48:39;101165.50;;;14.21;100.00
74163;BME280;62515;52.758;5.076;2023-05-09T11:51:06;101172.16;;;14.26;100.00
74163;BME280;62515;52.758;5.076;2023-05-09T11:53:39;101177.38;;;14.28;100.00
74163;BME280;62515;52.758;5.076;2023-05-09T11:56:06;101159.75;;;14.25;100.00
74163;BME280;62515;52.758;5.076;2023-05-09T11:58:37;101162.69;;;14.33;100.00
74163;BME280;62515;52.758;5.076;2023-05-09T12:01:04;101155.25;;;14.26;100.00
74163;BME280;62515;52.758;5.076;2023-05-09T12:03:31;101151.50;;;14.17;100.00
74163;BME280;62515;52.758;5.076;2023-05-09T12:05:58;101157.13;;;14.14;100.00
74163;BME280;62515;52.758;5.076;2023-05-09T12:08:24;101153.69;;;14.12;100.00
74163;BME280;62515;52.758;5.076;2023-05-09T12:10:53;101148.94;;;14.15;100.00
74163;BME280;62515;52.758;5.076;2023-05-09T12:13:19;101144.78;;;14.23;100.00
74163;BME280;62515;52.758;5.076;2023-05-09T12:15:46;101146.00;;;14.30;100.00
74163;BME280;62515;52.758;5.076;2023-05-09T12:18:13;101145.53;;;14.36;100.00
74163;BME280;62515;52.758;5.076;2023-05-09T12:20:41;101143.56;;;14.38;100.00
74163;BME280;62515;52.758;5.076;2023-05-09T12:23:09;101137.72;;;14.33;100.00
74163;BME280;62515;52.758;5.076;2023-05-09T12:25:36;101133.00;;;14.36;100.00
74163;BME280;62515;52.758;5.076;2023-05-09T12:28:04;101133.78;;;14.48;100.00
74163;BME280;62515;52.758;5.076;2023-05-09T12:30:31;101127.97;;;14.43;100.00
74163;BME280;62515;52.758;5.076;2023-05-09T12:32:58;101121.44;;;14.36;100.00
74163;BME280;62515;52.758;5.076;2023-05-09T12:35:26;101129.19;;;14.39;100.00
74163;BME280;62515;52.758;5.076;2023-05-09T12:37:55;101128.41;;;14.59;100.00
74163;BME280;62515;52.758;5.076;2023-05-09T12:40:23;101124.28;;;14.55;100.00
74163;BME280;62515;52.758;5.076;2023-05-09T12:42:50;101119.53;;;14.47;100.00
74163;BME280;62515;52.758;5.076;2023-05-09T12:45:18;101116.59;;;14.50;100.00
74163;BME280;62515;52.758;5.076;2023-05-09T12:47:50;101115.25;;;14.56;100.00